Time;durP1;ratioP1;P1;durP2;ratioP2;P2;SDS_P1;SDS_P2;PMS_P1;PMS_P2;Temp;Humidity;BMP_temperature;BMP_pressure;BME280_temperature;BME280_humidity;BME280_pressure;Samples;Min_cycle;Max_cycle;Signal;HPM_P1;HPM_P2
2020/12/01 00:02:23;;;;;;;6.97;5.03;;;21.20;49.10;;;;;;20936040;28;20060;-17
2020/12/01 00:12:24;;;;;;;7.82;4.55;;;21.20;48.80;;;;;;20937249;28;20437;-16
2020/12/01 00:22:24;;;;;;;6.43;4.20;;;21.00;49.00;;;;;;20915658;28;20499;-16
2020/12/01 00:32:25;;;;;;;6.90;4.38;;;20.70;49.30;;;;;;20910598;28;20040;-17
2020/12/01 00:42:26;;;;;;;7.45;4.93;;;20.60;49.40;;;;;;20905923;28;20060;-17
2020/12/01 00:52:27;;;;;;;6.63;4.35;;;20.50;49.60;;;;;;20913331;28;20029;-17
2020/12/01 01:02:28;;;;;;;7.05;4.30;;;20.50;49.30;;;;;;20905153;28;20032;-17
2020/12/01 01:12:28;;;;;;;6.13;3.85;;;20.50;49.30;;;;;;20905270;28;20025;-17
2020/12/01 01:22:29;;;;;;;6.18;3.33;;;20.50;49.10;;;;;;20916775;28;20044;-17
2020/12/01 01:32:29;;;;;;;5.25;3.67;;;20.40;49.30;;;;;;20903200;28;20051;-17
2020/12/01 01:42:30;;;;;;;4.55;3.40;;;20.30;49.50;;;;;;20903378;28;20056;-17
2020/12/01 01:52:35;;;;;;;4.50;3.58;;;20.20;49.40;;;;;;20900791;28;20033;-17
2020/12/01 02:02:36;;;;;;;4.93;3.53;;;20.10;49.40;;;;;;20901744;28;20036;-17
2020/12/01 02:12:40;;;;;;;5.68;3.88;;;20.10;49.20;;;;;;20902037;28;20025;-17
2020/12/01 02:22:45;;;;;;;4.20;3.10;;;20.00;49.50;;;;;;20902073;28;20040;-16
2020/12/01 02:32:46;;;;;;;4.70;3.55;;;20.00;49.50;;;;;;20908343;28;20032;-16
2020/12/01 02:42:51;;;;;;;4.60;3.53;;;19.90;49.40;;;;;;20905506;28;20419;-16
2020/12/01 02:52:52;;;;;;;4.68;3.55;;;19.80;49.30;;;;;;20926742;28;20048;-16
2020/12/01 03:02:52;;;;;;;4.07;3.03;;;19.80;49.40;;;;;;20941000;28;20033;-16
2020/12/01 03:12:53;;;;;;;4.78;3.08;;;19.70;49.70;;;;;;20946004;28;20037;-17
2020/12/01 03:22:53;;;;;;;4.38;3.33;;;19.70;49.20;;;;;;20947823;28;20036;-16
2020/12/01 03:32:54;;;;;;;6.40;3.50;;;19.60;49.30;;;;;;20937476;28;20036;-16
2020/12/01 03:42:54;;;;;;;4.22;3.45;;;19.60;49.30;;;;;;20937083;28;20036;-17
2020/12/01 03:52:56;;;;;;;4.00;2.90;;;19.60;49.30;;;;;;20941143;28;20037;-17
2020/12/01 04:02:57;;;;;;;3.85;3.10;;;19.60;49.30;;;;;;20942342;28;20039;-17
2020/12/01 04:12:58;;;;;;;3.85;3.00;;;19.50;49.30;;;;;;20940568;28;20024;-17
2020/12/01 04:22:58;;;;;;;3.58;2.90;;;19.50;49.30;;;;;;20943722;28;20043;-16
2020/12/01 04:32:59;;;;;;;4.20;3.63;;;19.40;49.30;;;;;;20934719;28;20410;-16
2020/12/01 04:43:09;;;;;;;4.60;2.90;;;19.40;49.30;;;;;;20931714;28;20386;-16
2020/12/01 04:53:31;;;;;;;3.60;2.75;;;19.40;49.30;;;;;;20936491;28;20033;-16
2020/12/01 05:03:54;;;;;;;4.45;2.70;;;19.30;49.30;;;;;;20938373;28;20025;-16
2020/12/01 05:14:21;;;;;;;3.72;2.78;;;19.30;49.40;;;;;;20921335;28;20111;-16
2020/12/01 05:24:22;;;;;;;4.13;2.65;;;19.60;49.00;;;;;;20913085;28;20037;-16
2020/12/01 05:34:23;;;;;;;5.32;3.20;;;20.80;46.10;;;;;;20902336;28;20141;-17
2020/12/01 05:44:26;;;;;;;3.97;3.05;;;22.00;43.60;;;;;;20909759;28;20032;-17
2020/12/01 05:54:40;;;;;;;5.68;2.88;;;22.60;42.60;;;;;;20903427;28;20074;-17
2020/12/01 06:04:40;;;;;;;6.20;2.38;;;22.40;43.00;;;;;;20902769;28;20403;-16
2020/12/01 06:14:58;;;;;;;3.90;2.38;;;22.10;43.60;;;;;;20901386;28;20036;-17
2020/12/01 06:25:20;;;;;;;5.63;2.38;;;21.80;44.20;;;;;;20912509;28;20474;-16
2020/12/01 06:35:55;;;;;;;5.20;2.80;;;21.60;44.40;;;;;;20920431;28;20024;-16
2020/12/01 06:45:58;;;;;;;18.42;5.53;;;21.90;44.20;;;;;;20917234;28;20032;-16
2020/12/01 06:56:00;;;;;;;28.58;9.57;;;22.60;43.70;;;;;;20913279;28;20036;-16
2020/12/01 07:06:16;;;;;;;19.67;9.48;;;23.60;42.20;;;;;;20912332;28;20037;-16
2020/12/01 07:16:32;;;;;;;13.45;7.95;;;24.00;40.30;;;;;;20910005;28;20428;-16
2020/12/01 07:26:56;;;;;;;18.63;8.07;;;24.40;40.00;;;;;;20909585;28;20029;-17
2020/12/01 07:37:27;;;;;;;18.75;7.10;;;24.80;39.80;;;;;;20910941;28;20364;-16
2020/12/01 07:47:28;;;;;;;17.10;6.55;;;25.00;39.80;;;;;;20883111;28;20036;-17
2020/12/01 07:57:29;;;;;;;12.53;4.53;;;25.30;39.10;;;;;;20937997;28;20108;-16
2020/12/01 08:07:29;;;;;;;18.67;6.03;;;25.00;39.40;;;;;;20931427;28;20495;-16
2020/12/01 08:17:33;;;;;;;22.65;7.90;;;24.40;41.40;;;;;;20926455;28;20116;-15
2020/12/01 08:27:50;;;;;;;19.40;6.97;;;23.90;43.40;;;;;;20913669;28;20119;-16
2020/12/01 08:37:57;;;;;;;17.52;6.95;;;23.40;44.10;;;;;;20988735;22;20052;-17
2020/12/01 08:48:00;;;;;;;14.55;6.35;;;23.00;44.70;;;;;;20914990;28;20113;-17
2020/12/01 08:58:36;;;;;;;13.43;6.32;;;22.70;45.50;;;;;;20903686;28;20633;-16
2020/12/01 09:08:41;;;;;;;18.38;5.28;;;22.20;46.40;;;;;;20904465;28;20035;-17
2020/12/01 09:28:47;;;;;;;14.63;5.38;;;21.60;47.80;;;;;;20901340;28;20036;-16
2020/12/01 09:38:47;;;;;;;16.10;5.40;;;21.50;47.70;;;;;;20904431;28;20024;-16
2020/12/01 09:48:48;;;;;;;7.30;4.05;;;21.40;46.50;;;;;;20899016;28;20032;-16
2020/12/01 10:09:03;;;;;;;11.40;4.32;;;21.00;47.00;;;;;;20917660;28;20032;-16
2020/12/01 10:39:30;;;;;;;8.95;3.97;;;20.80;47.80;;;;;;20919856;28;20033;-16
2020/12/01 10:49:31;;;;;;;5.72;3.42;;;20.70;48.60;;;;;;20941114;28;20094;-16
2020/12/01 10:59:31;;;;;;;9.27;3.83;;;20.40;49.60;;;;;;20880605;28;20033;-17
2020/12/01 11:27:06;;;;;;;7.22;2.95;;;20.40;49.70;;;;;;21218593;22;20686;-17
2020/12/01 11:37:06;;;;;;;6.53;3.60;;;20.40;49.90;;;;;;21224498;28;20031;-17
2020/12/01 11:47:07;;;;;;;4.53;3.35;;;20.30;49.20;;;;;;21222813;28;20034;-17
2020/12/01 11:57:08;;;;;;;7.67;2.90;;;20.20;49.60;;;;;;21223124;28;20046;-17
2020/12/01 12:07:08;;;;;;;7.82;3.40;;;20.10;49.90;;;;;;21222641;28;20522;-17
2020/12/01 12:17:09;;;;;;;6.22;3.03;;;20.00;50.30;;;;;;21221036;28;20062;-17
2020/12/01 12:27:09;;;;;;;11.27;2.88;;;20.00;50.00;;;;;;21173823;28;20069;-17
2020/12/01 12:37:10;;;;;;;6.75;2.50;;;20.00;50.00;;;;;;21164539;28;20429;-17
2020/12/01 12:47:10;;;;;;;6.03;3.45;;;20.00;50.00;;;;;;21135540;28;20035;-17
2020/12/01 12:57:11;;;;;;;5.28;2.38;;;19.90;50.00;;;;;;21162296;28;20419;-17
2020/12/01 13:07:11;;;;;;;6.38;2.50;;;19.80;50.30;;;;;;21161290;28;20039;-17
2020/12/01 13:17:12;;;;;;;3.70;2.45;;;19.80;50.30;;;;;;21161378;28;20055;-18
2020/12/01 13:27:12;;;;;;;5.88;3.03;;;19.80;50.00;;;;;;21161225;28;20059;-17
2020/12/01 13:37:13;;;;;;;5.07;3.10;;;19.80;50.10;;;;;;21159575;28;20058;-17
2020/12/01 13:47:13;;;;;;;3.72;2.05;;;19.70;50.30;;;;;;21167289;28;20081;-22
2020/12/01 13:57:14;;;;;;;4.90;1.70;;;19.60;50.50;;;;;;21157954;28;20026;-17
2020/12/01 14:07:14;;;;;;;2.97;1.70;;;19.50;50.50;;;;;;21157016;28;20458;-17
2020/12/01 14:17:15;;;;;;;3.53;2.00;;;19.50;50.50;;;;;;21156257;28;20020;-17
2020/12/01 14:27:16;;;;;;;3.78;1.90;;;19.50;50.70;;;;;;21155140;28;20114;-17
2020/12/01 14:37:17;;;;;;;2.75;1.65;;;19.50;50.70;;;;;;21155045;28;20047;-17
2020/12/01 14:47:30;;;;;;;2.85;1.88;;;19.40;50.70;;;;;;21178766;28;20432;-17
2020/12/01 14:57:38;;;;;;;3.53;1.90;;;19.30;50.70;;;;;;21161949;28;20024;-17
2020/12/01 15:07:57;;;;;;;2.70;1.50;;;19.40;50.70;;;;;;21157223;28;20491;-17
2020/12/01 15:18:06;;;;;;;4.18;2.25;;;19.30;50.80;;;;;;21170640;28;20552;-17
2020/12/01 15:28:12;;;;;;;2.77;1.77;;;19.30;50.80;;;;;;21135281;28;20043;-17
2020/12/01 15:38:21;;;;;;;4.85;2.00;;;19.20;50.70;;;;;;21152670;28;20075;-17
2020/12/01 15:48:24;;;;;;;3.25;2.15;;;19.20;50.70;;;;;;21150147;28;20125;-17
2020/12/01 15:59:03;;;;;;;3.08;1.42;;;19.70;50.20;;;;;;21156904;28;20513;-17
2020/12/01 16:09:09;;;;;;;7.78;2.22;;;20.20;49.30;;;;;;21161975;28;20514;-17
2020/12/01 16:19:30;;;;;;;3.08;1.65;;;21.00;47.80;;;;;;21163371;28;20038;-17
2020/12/01 16:29:49;;;;;;;4.63;2.47;;;21.70;46.30;;;;;;21164491;28;20395;-17
2020/12/01 16:40:19;;;;;;;5.75;1.75;;;22.20;45.10;;;;;;21164833;28;20033;-17
2020/12/01 16:50:42;;;;;;;2.65;1.67;;;22.70;44.30;;;;;;21163700;28;20023;-16
2020/12/01 17:00:50;;;;;;;5.25;1.17;;;23.20;43.30;;;;;;21162026;28;20032;-17
2020/12/01 17:10:55;;;;;;;3.47;1.35;;;23.60;42.50;;;;;;21161503;28;20031;-17
2020/12/01 17:20:56;;;;;;;1.92;1.10;;;24.00;42.00;;;;;;21151455;28;20031;-17
2020/12/01 17:31:22;;;;;;;5.40;1.45;;;24.20;41.60;;;;;;21160575;28;20515;-18
2020/12/01 17:41:47;;;;;;;6.63;1.33;;;24.40;41.10;;;;;;21159029;28;20027;-17
2020/12/01 17:51:49;;;;;;;8.57;2.20;;;24.60;40.70;;;;;;21157972;28;20052;-17
2020/12/01 18:01:51;;;;;;;11.43;1.90;;;24.40;41.20;;;;;;21155716;28;20140;-17
2020/12/01 18:12:09;;;;;;;7.05;2.33;;;24.30;41.40;;;;;;21144581;28;20019;-17
2020/12/01 18:22:17;;;;;;;8.17;1.53;;;23.90;43.50;;;;;;21155877;28;20039;-17
2020/12/01 18:32:36;;;;;;;;;;;24.00;43.60;;;;;;21155813;28;20039;-17
2020/12/01 18:42:42;;;;;;;5.18;1.77;;;23.60;44.50;;;;;;21155225;28;19965;-17
2020/12/01 18:52:43;;;;;;;10.35;1.77;;;23.30;46.20;;;;;;21154320;28;20031;-17
2020/12/01 19:02:43;;;;;;;9.02;1.75;;;23.20;47.00;;;;;;21153868;28;20047;-17
2020/12/01 19:12:44;;;;;;;7.38;2.65;;;22.90;47.70;;;;;;21152444;28;20031;-17
2020/12/01 19:22:44;;;;;;;17.30;7.18;;;23.00;47.60;;;;;;21152485;27;20055;-17
2020/12/01 19:32:46;;;;;;;17.00;12.90;;;23.20;47.00;;;;;;21159949;28;20051;-17
2020/12/01 19:42:46;;;;;;;35.97;26.85;;;23.30;46.40;;;;;;21168681;28;20515;-17
2020/12/01 19:52:47;;;;;;;41.17;30.37;;;23.20;46.20;;;;;;21164175;28;20032;-16
2020/12/01 20:02:48;;;;;;;32.30;23.50;;;23.40;45.90;;;;;;21163233;28;20590;-17
2020/12/01 20:12:48;;;;;;;24.23;16.65;;;23.70;45.70;;;;;;21162091;28;20051;-17
2020/12/01 20:22:49;;;;;;;20.00;12.70;;;23.60;46.00;;;;;;21159403;27;20391;-17
2020/12/01 20:32:50;;;;;;;13.43;8.77;;;23.50;46.50;;;;;;21141577;28;20504;-16
2020/12/01 20:42:50;;;;;;;13.47;7.93;;;23.60;47.90;;;;;;21150803;28;20617;-16
2020/12/01 20:52:51;;;;;;;10.38;6.07;;;23.40;48.50;;;;;;21137804;28;20453;-17
2020/12/01 21:02:51;;;;;;;9.73;4.45;;;23.30;48.90;;;;;;21154998;28;20568;-16
2020/12/01 21:13:02;;;;;;;11.18;3.42;;;23.20;49.40;;;;;;21158692;28;20055;-16
2020/12/01 21:23:03;;;;;;;5.85;3.45;;;23.20;49.50;;;;;;21159533;27;20031;-16
2020/12/01 21:33:17;;;;;;;6.38;2.92;;;23.00;49.60;;;;;;21159043;28;20070;-17
2020/12/01 21:43:41;;;;;;;11.40;9.30;;;23.00;49.60;;;;;;21158447;28;20549;-17
2020/12/01 21:53:50;;;;;;;13.52;9.88;;;23.10;49.30;;;;;;21156239;28;20028;-17
2020/12/01 22:04:05;;;;;;;19.98;10.75;;;23.20;49.30;;;;;;21155307;28;20106;-16
2020/12/01 22:14:21;;;;;;;18.63;9.27;;;23.20;49.90;;;;;;21169230;28;20035;-17
2020/12/01 22:24:42;;;;;;;15.10;8.90;;;23.40;49.90;;;;;;21158213;27;20035;-16
2020/12/01 22:34:42;;;;;;;15.05;8.13;;;23.10;49.80;;;;;;21103955;28;20032;-17
2020/12/01 22:45:00;;;;;;;14.32;7.72;;;22.80;50.00;;;;;;21154893;28;20034;-17
2020/12/01 22:55:22;;;;;;;13.97;7.63;;;22.50;50.40;;;;;;21154006;28;20106;-17
2020/12/01 23:05:23;;;;;;;15.18;8.25;;;22.20;50.40;;;;;;21153676;28;20090;-17
2020/12/01 23:15:27;;;;;;;12.50;7.15;;;21.80;51.00;;;;;;21154189;28;20030;-17
2020/12/01 23:25:27;;;;;;;11.73;8.25;;;21.50;51.40;;;;;;21152358;28;20024;-16
2020/12/01 23:35:31;;;;;;;11.52;6.90;;;21.30;51.30;;;;;;21152846;28;20038;-16
2020/12/01 23:45:32;;;;;;;8.82;7.45;;;21.20;51.30;;;;;;21152387;28;20084;-16
2020/12/01 23:55:33;;;;;;;25.17;9.43;;;21.10;51.30;;;;;;21151414;28;20049;-16
